Latest Coastal Weather Observations for Dennes Point

IDT60701

Issued at 12:32 pm EST Friday 29 May 2015 (issued every 10 minutes, with the page automatically refreshed every 10 minutes)

About coastal observations | Map of coastal stations | Coastal observations for TAS | Marine services | Other Formats
Station Details ID: 094255 Name: DENNES POINT Lat: -43.06 Lon: 147.36 Height: 5.67 m
Data from the previous 72 hours. | See also: Recent months at Dennes Point
Date/Time
EST
Temp

°C
Wind Pressure Rain
since 9am
mm
Weather Cloud Vis
km
Sea
Height
m
Swell
Dir
 
Speed
knots
Gust
knots
hPa Trend Height
m
Period
s
Dir
29/12:30pm 11.4 WNW 4 7 1010.6 - 0.0 - - - - - - -
29/12:00pm 11.1 WNW 6 17 1010.5 - 0.0 - - - - - - -
29/11:30am 11.2 NNW 8 12 1010.6 - 0.0 - - - - - - -
29/11:00am 11.2 WNW 2 6 1010.9 - 0.0 - - - - - - -
29/10:30am 11.0 N 2 4 1011.0 - 0.0 - - - - - - -
29/10:00am 10.2 NW 7 10 1010.9 - 0.0 - - - - - - -
29/09:30am 9.2 NW 8 13 1010.8 - 0.0 - - - - - - -
29/09:00am 8.6 NW 10 14 1011.1 - 2.2 - - - - - - -
29/08:30am 8.3 NW 8 10 1010.9 - 2.2 - - - - - - -
29/08:00am 7.8 WNW 9 16 1010.2 - 2.2 - - - - - - -
29/07:30am 7.5 NNW 5 9 1009.9 - 2.2 - - - - - - -
29/07:00am 7.8 NNW 6 13 1009.5 - 2.2 - - - - - - -
29/06:30am 7.5 NNW 9 14 1009.1 - 2.2 - - - - - - -
29/06:00am 7.0 WNW 6 11 1008.7 - 2.2 - - - - - - -
29/05:30am 7.0 NW 10 14 1008.2 - 2.2 - - - - - - -
29/05:00am 5.5 ESE 3 5 1008.1 - 2.2 - - - - - - -
29/04:30am 5.6 W 7 10 1008.1 - 2.2 - - - - - - -
29/04:12am 6.1 WSW 17 27 1007.9 - 2.0 - - - - - - -
29/04:00am 6.9 W 16 21 1008.0 - 0.4 - - - - - - -
29/03:30am 8.2 WNW 10 15 1007.1 - 0.0 - - - - - - -
29/03:00am 8.6 WNW 19 26 1006.4 - 0.0 - - - - - - -
29/02:30am 8.9 WNW 13 22 1006.1 - 0.0 - - - - - - -
29/02:00am 8.7 WNW 15 20 1006.3 - 0.0 - - - - - - -
29/01:30am 9.1 WNW 20 32 1006.0 - 0.0 - - - - - - -
29/01:21am 9.1 WNW 18 29 1005.9 - 0.0 - - - - - - -
29/01:00am 9.1 WNW 13 21 1005.8 - 0.0 - - - - - - -
29/12:30am 9.0 WNW 12 20 1005.9 - 0.0 - - - - - - -
29/12:19am 9.3 WNW 15 26 1006.1 - 0.0 - - - - - - -
29/12:00am 9.6 WNW 16 25 1005.8 - 0.0 - - - - - - -
 
Date/Time
EST
Temp

°C
Wind Pressure Rain
since 9am
mm
Weather Cloud Vis
km
Sea
Height
m
Swell
Dir
 
Speed
knots
Gust
knots
hPa Trend Height
m
Period
s
Dir
28/11:42pm 9.9 WNW 15 26 1005.4 - 0.0 - - - - - - -
28/11:30pm 9.9 WNW 14 23 1005.4 - 0.0 - - - - - - -
28/11:00pm 10.1 NW 10 18 1005.3 - 0.0 - - - - - - -
28/10:30pm 10.4 WNW 13 21 1005.4 - 0.0 - - - - - - -
28/10:00pm 10.6 NNW 11 18 1005.6 - 0.0 - - - - - - -
28/09:30pm 10.8 NNW 13 18 1005.3 - 0.0 - - - - - - -
28/09:00pm 10.8 NNW 14 21 1005.0 - 0.0 - - - - - - -
28/08:30pm 10.8 NNW 11 17 1005.0 - 0.0 - - - - - - -
28/08:00pm 10.4 WNW 8 17 1005.4 - 0.0 - - - - - - -
28/07:30pm 10.7 WNW 5 8 1004.9 - 0.0 - - - - - - -
28/07:00pm 10.7 WNW 8 13 1004.7 - 0.0 - - - - - - -
28/06:30pm 10.3 WNW 5 7 1004.6 - 0.0 - - - - - - -
28/06:00pm 10.3 SW 4 7 1004.6 - 0.0 - - - - - - -
28/05:30pm 11.1 SW 8 13 1004.8 - 0.0 - - - - - - -
28/05:00pm 11.6 W 11 15 1004.3 - 0.0 - - - - - - -
28/04:30pm 13.2 W 12 17 1003.7 - 0.0 - - - - - - -
28/04:00pm 13.7 N 8 11 1003.1 - 0.0 - - - - - - -
28/03:30pm 13.9 N 11 14 1002.9 - 0.0 - - - - - - -
28/03:00pm 13.9 N 11 16 1003.1 - 0.0 - - - - - - -
28/02:30pm 15.2 N 8 13 1003.2 - 0.0 - - - - - - -
28/02:00pm 14.4 NNW 10 14 1004.1 - 0.0 - - - - - - -
28/01:30pm 15.2 NNW 16 24 1004.4 - 0.0 - - - - - - -
28/01:17pm 15.7 N 15 25 1004.1 - 0.0 - - - - - - -
28/01:00pm 15.1 NNW 12 24 1004.2 - 0.0 - - - - - - -
28/12:30pm 15.2 NNW 11 16 1004.9 - 0.0 - - - - - - -
28/12:00pm 15.5 N 13 18 1005.6 - 0.0 - - - - - - -
28/11:30am 15.1 NNW 11 17 1006.1 - 0.0 - - - - - - -
28/11:00am 15.1 N 11 14 1006.9 - 0.0 - - - - - - -
28/10:30am 14.8 NNW 4 7 1007.7 - 0.0 - - - - - - -
28/10:00am 13.9 N 8 10 1008.0 - 0.0 - - - - - - -
28/09:30am 13.4 NNW 10 14 1008.3 - 0.0 - - - - - - -
28/09:00am 14.0 NNW 8 11 1008.3 - 0.0 - - - - - - -
28/08:30am 13.5 NNW 9 13 1008.4 - 0.0 - - - - - - -
28/08:00am 13.4 NNW 9 12 1008.6 - 0.0 - - - - - - -
28/07:30am 13.4 NNW 9 13 1008.7 - 0.0 - - - - - - -
28/07:00am 12.9 NNW 8 11 1008.6 - 0.0 - - - - - - -
28/06:30am 13.3 NNW 10 13 1008.5 - 0.0 - - - - - - -
28/06:00am 13.4 NNW 9 13 1008.4 - 0.0 - - - - - - -
28/05:30am 13.4 NNW 9 11 1008.5 - 0.0 - - - - - - -
28/05:00am 13.8 NNW 7 9 1008.7 - 0.0 - - - - - - -
28/04:30am 13.3 NNW 4 5 1009.1 - 0.0 - - - - - - -
28/04:00am 14.5 NNW 8 14 1009.5 - 0.0 - - - - - - -
28/03:30am 13.7 NNW 7 10 1009.5 - 0.0 - - - - - - -
28/03:00am 14.3 NNW 8 13 1009.8 - 0.0 - - - - - - -
28/02:30am 14.2 NNW 9 12 1010.0 - 0.0 - - - - - - -
28/02:00am 13.9 NNW 8 12 1010.1 - 0.0 - - - - - - -
28/01:30am 14.5 NNW 7 10 1010.0 - 0.0 - - - - - - -
28/01:00am 14.7 NW 7 13 1010.3 - 0.0 - - - - - - -
28/12:30am 13.4 W 5 8 1010.8 - 0.0 - - - - - - -
28/12:00am 12.4 SSE 1 3 1011.1 - 0.0 - - - - - - -
 
Date/Time
EST
Temp

°C
Wind Pressure Rain
since 9am
mm
Weather Cloud Vis
km
Sea
Height
m
Swell
Dir
 
Speed
knots
Gust
knots
hPa Trend Height
m
Period
s
Dir
27/11:30pm 12.6 SW 2 3 1011.4 - 0.0 - - - - - - -
27/11:00pm 13.0 N 6 9 1011.1 - 0.0 - - - - - - -
27/10:30pm 12.7 NE 2 3 1010.9 - 0.0 - - - - - - -
27/10:00pm 12.8 N 6 7 1011.0 - 0.0 - - - - - - -
27/09:30pm 12.8 NNE 9 11 1011.3 - 0.0 - - - - - - -
27/09:00pm 12.7 NE 11 14 1011.4 - 0.0 - - - - - - -
27/08:30pm 13.0 NE 12 15 1011.2 - 0.0 - - - - - - -
27/08:00pm 13.0 NNE 11 15 1011.5 - 0.0 - - - - - - -
27/07:30pm 12.9 NNE 11 14 1011.5 - 0.0 - - - - - - -
27/07:00pm 13.7 N 10 12 1011.7 - 0.0 - - - - - - -
27/06:30pm 13.9 N 12 15 1011.4 - 0.0 - - - - - - -
27/06:00pm 13.4 N 14 17 1011.6 - 0.0 - - - - - - -
27/05:30pm 13.6 N 10 13 1011.6 - 0.0 - - - - - - -
27/05:00pm 13.9 N 6 9 1011.8 - 0.0 - - - - - - -
27/04:30pm 13.9 N 3 7 1012.0 - 0.0 - - - - - - -
27/04:00pm 13.8 NNE 8 10 1012.0 - 0.0 - - - - - - -
27/03:30pm 13.9 NNE 9 11 1012.4 - 0.0 - - - - - - -
27/03:00pm 13.8 NE 6 9 1012.6 - 0.0 - - - - - - -
27/02:30pm 13.5 N 5 9 1012.6 - 0.0 - - - - - - -
27/02:00pm 13.1 NE 6 8 1013.0 - 0.0 - - - - - - -
27/01:30pm 12.9 NNE 9 11 1013.3 - 0.0 - - - - - - -
27/01:00pm 12.6 N 11 13 1013.8 - 0.0 - - - - - - -
27/12:30pm 12.3 NNE 9 11 1014.2 - 0.0 - - - - - - -
27/12:00pm 11.7 NNE 12 14 1014.7 - 0.0 - - - - - - -
27/11:30am 11.1 NNE 12 14 1015.4 - 0.0 - - - - - - -
27/11:00am 10.6 NNE 12 15 1016.2 - 0.0 - - - - - - -
27/10:30am 10.2 NNE 13 16 1016.6 - 0.0 - - - - - - -
27/10:00am 9.6 NNE 12 15 1016.7 - 0.0 - - - - - - -
27/09:30am 9.9 NNE 15 19 1016.9 - 0.0 - - - - - - -
27/09:00am 9.4 NNE 14 19 1017.2 - 0.0 - - - - - - -
27/08:30am 9.1 NNE 11 15 1017.3 - 0.0 - - - - - - -
27/08:00am 8.8 NNE 12 16 1017.6 - 0.0 - - - - - - -
27/07:30am 8.8 NNE 8 11 1017.8 - 0.0 - - - - - - -
27/07:00am 9.0 N 13 17 1018.1 - 0.0 - - - - - - -
27/06:30am 6.9 SSE 3 6 1018.2 - 0.0 - - - - - - -
27/06:00am 7.1 WSW 5 7 1018.5 - 0.0 - - - - - - -
27/05:30am 9.2 N 5 7 1018.8 - 0.0 - - - - - - -
27/05:00am 9.0 N 7 10 1019.1 - 0.0 - - - - - - -
27/04:30am 8.6 N 10 13 1019.3 - 0.0 - - - - - - -
27/04:00am 8.3 N 8 9 1019.9 - 0.0 - - - - - - -
27/03:30am 8.6 NE 7 10 1020.3 - 0.0 - - - - - - -
27/03:00am 8.2 NNE 4 5 1020.9 - 0.0 - - - - - - -
27/02:30am 8.7 NNE 5 8 1021.3 - 0.0 - - - - - - -
27/02:00am 7.9 CALM 0 0 1021.6 - 0.0 - - - - - - -
27/01:30am 7.6 SSW 1 3 1021.8 - 0.0 - - - - - - -
27/01:00am 7.4 SSW 4 5 1022.0 - 0.0 - - - - - - -
27/12:30am 6.7 W 1 3 1022.3 - 0.0 - - - - - - -
27/12:00am 7.6 SSW 4 5 1022.9 - 0.0 - - - - - - -
 
Date/Time
EST
Temp

°C
Wind Pressure Rain
since 9am
mm
Weather Cloud Vis
km
Sea
Height
m
Swell
Dir
 
Speed
knots
Gust
knots
hPa Trend Height
m
Period
s
Dir
26/11:30pm 7.8 SSW 5 6 1023.1 - 0.0 - - - - - - -
26/11:00pm 8.1 S 6 7 1023.5 - 0.0 - - - - - - -
26/10:30pm 8.6 SSW 4 5 1023.7 - 0.0 - - - - - - -
26/10:00pm 8.8 SW 4 5 1024.1 - 0.0 - - - - - - -
26/09:30pm 9.7 SSW 4 4 1024.2 - 0.0 - - - - - - -
26/09:00pm 9.6 SSW 3 4 1024.3 - 0.0 - - - - - - -
26/08:30pm 9.2 SSW 4 5 1024.4 - 0.0 - - - - - - -
26/08:00pm 9.7 SSW 4 5 1024.7 - 0.0 - - - - - - -
26/07:30pm 9.8 SSW 1 3 1024.8 - 0.0 - - - - - - -
26/07:00pm 10.3 S 1 2 1025.0 - 0.0 - - - - - - -
26/06:30pm 10.3 S 3 3 1025.1 - 0.0 - - - - - - -
26/06:00pm 10.0 SSW 3 4 1024.9 - 0.0 - - - - - - -
26/05:30pm 10.9 ESE 5 6 1024.8 - 0.0 - - - - - - -
26/05:00pm 11.3 SE 5 7 1024.8 - 0.0 - - - - - - -
26/04:30pm 11.6 SE 5 7 1025.0 - 0.0 - - - - - - -
26/04:00pm 11.9 ESE 6 8 1025.0 - 0.0 - - - - - - -
26/03:30pm 11.9 ESE 6 8 1024.9 - 0.0 - - - - - - -
26/03:00pm 12.8 ESE 6 8 1024.8 - 0.0 - - - - - - -
26/02:30pm 12.9 ESE 6 7 1024.8 - 0.0 - - - - - - -
26/02:00pm 13.2 ESE 6 8 1024.9 - 0.0 - - - - - - -
26/01:30pm 12.9 ESE 6 7 1025.1 - 0.0 - - - - - - -
26/01:00pm 13.5 ESE 7 8 1025.3 - 0.0 - - - - - - -

Other Formats:

Comma delimited format used in spreadsheet applications
http://www.bom.gov.au/fwo/IDT60701/IDT60701.94988.axf

JavaScript Object Notation format (JSON) in row-major order
http://www.bom.gov.au/fwo/IDT60701/IDT60701.94988.json